New Hartford, New York
Current Conditions -  °F | °C
As of 10:53 AM on Saturday 20 Dec 2014 (Local Time) from KRME Reporting Station
Overcast Overcast  
Wind Chill: 17°   Ceiling: 2100
Heat Index: 24°   Visibility: 10mi
Dew Point: 19°   Wind: 6mph
Humidity: 81%   Direction: 110°ESE
Pressure: 30.32"   Gusts: NA
Location:  43.07°N, 75.29°W
Report Text: KRME 201553Z 11005KT 10SM OVC021 M04/M07 A3032 RMK AO2 SLP273 T10441072
Loading
Personal Weather Stations






























Interactive Weather Map New forecast layout! Learn more

10-Day Weather Forecast

Advertisements
Track Severe Weather on mobile